Eau Claire, MI (49111)

6:34 AM EDT on August 28, 2016 (GMT -0400)
Schrader Farm | | Change Station
Active Advisory: Special Statement Active Notice: Record Report

Elev 735 ft 41.96 °N, 86.20 °W | Updated 35 seconds ago

Mostly Cloudy
Mostly Cloudy
71.6 °F
Feels Like 71.6 °F
N
0.0
Wind Variable Wind from SSE
Gusts 0.0 mph

Today
High -- | Low -- °F
--% Chance of Precip.
Yesterday
High -- | Low -- °F
Precip. -- in
Pressure 30.15 in
Visibility 4.0 miles
Clouds Mostly Cloudy 3400 ft
Dew Point 71 °F
Humidity 97%
Rainfall 0.00 in
Snow Depth Not available.
7:07 AM 8:24 PM
Waning Crescent, 16% visible
SPECI KBEH 281000Z AUTO 00000KT 4SM BR BKN034 22/21 A3015 RMK AO2 T02220206 $
Pressure 30.15 in
Visibility 4.0 miles
Clouds Mostly Cloudy 3400 ft
Dew Point 71 °F
Humidity 97%
Rainfall 0.00 in
Snow Depth Not available.
7:07 AM 8:24 PM
Waning Crescent, 16% visible
SPECI KBEH 281000Z AUTO 00000KT 4SM BR BKN034 22/21 A3015 RMK AO2 T02220206 $

10-Day Weather Forecast

Almanac

Astronomy

Aug. 28, 2016 Rise Set
Actual Time
Civil Twilight
Nautical Twilight
Astronomical Twilight
Moon
Length of Visible Light
Length of Day
Tomorrow will be .
, % of the Moon is Illuminated

Today's Extremes

State Highs State Lows

Community

WunderPhotos

Upload Photos

1,935,541 photos uploaded!

WunderBlog® & News

Nearby

Air Quality

  Air Quality AQ Index Pollutant
Not available.

Snow Depth

Station Depth Elevation

Earthquake Activity

City Distance Mag. Time & Date
Minimum magnitude displayed is 2.5.

Coastal Water Temperatures

Place Temperature

Stations

Nearby Weather Stations

Station Location Temp. Windchill Dew Point Humidity Wind Precip. Elev Updated Type
                   

Watches & Warnings

Special Statement
Issued: 3:37 AM CDT Aug. 28, 2016 – National Weather Service

Patchy dense fog is expected early this morning, mainly in rural,
low lying portions of the area. Visibility in the fog may be as
low as a quarter mile or less. The fog should quickly burn off
after sunrise with visibilities improving significantly by 9am EDT.
In the meantime, motorists should use extra caution and be
prepared to slow down when fog banks are encountered.


437 am EDT sun Aug 28 2016 /337 am CDT sun Aug 28 2016/

Patchy dense fog is expected early this morning, mainly in rural,
low lying portions of the area. Visibility in the fog may be as
low as a quarter mile or less. The fog should quickly burn off
after sunrise with visibilities improving significantly by 9am EDT.
In the meantime, motorists should use extra caution and be
prepared to slow down when fog banks are encountered.